createdAt,value
2023-10-20T00:00:39.315Z,6.90
2023-10-20T00:03:27.754Z,6.50
2023-10-20T00:05:57.761Z,8.30
2023-10-20T00:08:26.222Z,9.20
2023-10-20T00:10:58.605Z,7.10
2023-10-20T00:13:27.119Z,7.70
2023-10-20T00:15:55.635Z,8.60
2023-10-20T00:18:24.621Z,9.70
2023-10-20T00:20:52.975Z,9.60
2023-10-20T00:23:21.490Z,10.00
2023-10-20T00:25:49.823Z,14.20
2023-10-20T00:28:18.934Z,9.10
2023-10-20T00:30:47.416Z,9.80
2023-10-20T00:33:17.345Z,12.30
2023-10-20T00:35:45.607Z,10.80
2023-10-20T00:38:13.994Z,8.80
2023-10-20T00:40:50.137Z,10.90
2023-10-20T00:43:19.030Z,8.50
2023-10-20T00:45:48.286Z,8.00
2023-10-20T00:48:16.950Z,10.60
2023-10-20T00:50:47.141Z,11.00
2023-10-20T00:53:16.188Z,9.10
2023-10-20T00:55:45.641Z,9.60
2023-10-20T00:58:14.120Z,10.10
2023-10-20T01:00:43.963Z,9.10
2023-10-20T01:03:12.636Z,9.30
2023-10-20T01:05:43.190Z,11.60
2023-10-20T01:08:11.669Z,10.90
2023-10-20T01:10:40.518Z,8.90
2023-10-20T01:13:09.608Z,11.70
2023-10-20T01:15:41.218Z,11.20
2023-10-20T01:18:10.973Z,7.80
2023-10-20T01:20:40.641Z,9.90
2023-10-20T01:23:08.918Z,10.80
2023-10-20T01:25:37.543Z,11.90
2023-10-20T01:28:06.338Z,11.20
2023-10-20T01:30:34.734Z,10.90
2023-10-20T01:33:03.065Z,12.40
2023-10-20T01:35:31.423Z,12.30
2023-10-20T01:37:59.975Z,11.90
2023-10-20T01:40:28.755Z,11.90
2023-10-20T01:42:57.329Z,11.40
2023-10-20T01:45:26.321Z,14.80
2023-10-20T01:47:54.767Z,11.30
2023-10-20T01:50:25.802Z,10.70
2023-10-20T01:52:55.783Z,14.60
2023-10-20T01:55:24.671Z,12.30
2023-10-20T01:57:53.130Z,11.30
2023-10-20T02:00:21.504Z,12.20
2023-10-20T02:02:50.081Z,15.00
2023-10-20T02:05:18.894Z,12.50
2023-10-20T02:07:47.356Z,10.80
2023-10-20T02:10:16.457Z,12.10
2023-10-20T02:12:44.855Z,10.40
2023-10-20T02:15:13.852Z,11.60
2023-10-20T02:17:41.982Z,10.80
2023-10-20T02:20:11.002Z,8.60
2023-10-20T02:22:39.475Z,9.70
2023-10-20T02:25:10.205Z,10.90
2023-10-20T02:27:40.932Z,8.80
2023-10-20T02:30:13.732Z,8.20
2023-10-20T02:32:42.989Z,9.60
2023-10-20T02:35:12.500Z,9.40
2023-10-20T02:37:40.923Z,8.80
2023-10-20T02:40:11.916Z,9.50
2023-10-20T02:42:40.453Z,7.70
2023-10-20T02:45:12.466Z,9.90
2023-10-20T02:47:41.050Z,8.10
2023-10-20T02:50:10.512Z,8.90
2023-10-20T02:52:39.061Z,9.00
2023-10-20T02:55:07.957Z,12.00
2023-10-20T02:57:37.775Z,10.70
2023-10-20T03:00:16.359Z,7.80
2023-10-20T03:02:45.477Z,9.60
2023-10-20T03:05:14.001Z,12.10
2023-10-20T03:07:43.597Z,11.50
2023-10-20T03:10:11.845Z,10.70
2023-10-20T03:12:41.150Z,10.10
2023-10-20T03:15:12.528Z,9.80
2023-10-20T03:17:40.969Z,8.80
2023-10-20T03:20:10.516Z,9.70
2023-10-20T03:22:40.702Z,10.30
2023-10-20T03:25:11.500Z,9.90
2023-10-20T03:27:40.638Z,13.00
2023-10-20T03:30:09.830Z,9.30
2023-10-20T03:32:38.472Z,10.10
2023-10-20T03:35:08.441Z,9.90
2023-10-20T03:37:37.011Z,8.30
2023-10-20T03:40:14.790Z,10.30
2023-10-20T03:42:46.195Z,10.80
2023-10-20T03:45:15.827Z,8.90
2023-10-20T03:47:45.676Z,8.30
2023-10-20T03:50:17.464Z,8.90
2023-10-20T03:52:49.983Z,11.50
2023-10-20T03:55:19.117Z,12.30
2023-10-20T03:57:48.825Z,13.20
2023-10-20T04:00:22.803Z,12.40
2023-10-20T04:02:53.545Z,10.40
2023-10-20T04:05:23.034Z,11.10
2023-10-20T04:07:51.965Z,10.50
2023-10-20T04:10:21.113Z,8.60
2023-10-20T04:12:50.183Z,9.40
2023-10-20T04:15:21.103Z,7.90
2023-10-20T04:17:53.829Z,9.00
2023-10-20T04:20:24.904Z,10.80
2023-10-20T04:22:55.029Z,9.00
2023-10-20T04:25:24.304Z,23.20
2023-10-20T04:27:59.649Z,9.60
2023-10-20T04:30:47.042Z,8.90
2023-10-20T04:33:34.341Z,9.20
2023-10-20T04:36:21.348Z,14.20
2023-10-20T04:39:08.246Z,20.50
2023-10-20T04:41:56.385Z,18.60
2023-10-20T04:44:25.198Z,13.20
2023-10-20T04:47:13.150Z,12.80
2023-10-20T04:50:16.435Z,16.50
2023-10-20T04:52:57.167Z,11.90
2023-10-20T04:55:28.985Z,14.40
2023-10-20T04:58:15.520Z,22.00
2023-10-20T05:00:43.905Z,14.40
2023-10-20T05:03:32.245Z,12.60
2023-10-20T05:06:22.031Z,9.00
2023-10-20T05:08:51.334Z,13.50
2023-10-20T05:11:21.360Z,12.50
2023-10-20T05:13:50.275Z,13.20
2023-10-20T05:16:18.870Z,10.30
2023-10-20T05:18:47.608Z,10.90
2023-10-20T05:21:16.492Z,7.70
2023-10-20T05:23:45.608Z,13.90
2023-10-20T05:26:15.243Z,9.30
2023-10-20T05:28:45.215Z,11.10
2023-10-20T05:31:14.423Z,10.00
2023-10-20T05:33:46.887Z,9.50
2023-10-20T05:36:15.092Z,11.70
2023-10-20T05:38:43.794Z,14.20
2023-10-20T05:41:15.521Z,10.80
2023-10-20T05:43:44.045Z,12.20
2023-10-20T05:46:19.638Z,12.30
2023-10-20T05:51:16.611Z,11.10
2023-10-20T05:53:44.926Z,10.80
2023-10-20T05:56:42.171Z,20.30
2023-10-20T05:59:10.638Z,10.40
2023-10-20T06:01:39.341Z,14.50
2023-10-20T06:04:09.704Z,9.10
2023-10-20T06:06:38.318Z,11.50
2023-10-20T06:09:10.798Z,9.40
2023-10-20T06:11:40.445Z,12.50
2023-10-20T06:14:14.662Z,8.70
2023-10-20T06:16:43.917Z,10.00
2023-10-20T06:19:12.197Z,13.70
2023-10-20T06:21:46.264Z,14.80
2023-10-20T06:24:15.613Z,10.20
2023-10-20T06:26:45.491Z,10.70
2023-10-20T06:29:23.004Z,15.80
2023-10-20T06:32:21.031Z,12.70
2023-10-20T06:34:50.294Z,10.80
2023-10-20T06:37:43.150Z,9.40
2023-10-20T06:40:22.076Z,12.60
2023-10-20T06:42:50.537Z,14.10
2023-10-20T06:45:18.814Z,17.20
2023-10-20T06:47:48.295Z,16.00
2023-10-20T06:50:16.971Z,11.20
2023-10-20T06:52:45.083Z,13.10
2023-10-20T06:57:46.150Z,19.40
2023-10-20T07:00:18.563Z,17.60
2023-10-20T07:02:48.072Z,21.30
2023-10-20T07:05:16.603Z,14.70
2023-10-20T07:07:45.577Z,15.70
2023-10-20T07:10:14.036Z,16.40
2023-10-20T07:12:42.338Z,21.50
2023-10-20T07:15:11.840Z,17.90
2023-10-20T07:17:40.550Z,13.00
2023-10-20T07:20:10.001Z,17.50
2023-10-20T07:22:39.739Z,12.10
2023-10-20T07:25:09.498Z,13.70
2023-10-20T07:27:37.733Z,11.30
2023-10-20T07:30:08.004Z,18.20
2023-10-20T07:32:36.570Z,17.80
2023-10-20T07:37:35.189Z,18.30
2023-10-20T07:40:06.252Z,18.20
2023-10-20T07:42:35.076Z,18.80
2023-10-20T07:47:31.802Z,17.70
2023-10-20T07:50:00.913Z,12.10
2023-10-20T07:52:30.814Z,20.40
2023-10-20T07:54:59.109Z,14.30
2023-10-20T07:57:27.214Z,16.20
2023-10-20T07:59:55.784Z,12.60
2023-10-20T08:02:25.228Z,16.80
2023-10-20T09:20:12.244Z,11.70
2023-10-20T09:22:39.404Z,9.80
2023-10-20T09:25:10.663Z,14.30
2023-10-20T09:27:41.215Z,7.50
2023-10-20T09:30:10.481Z,13.60
2023-10-20T09:32:38.984Z,7.90
2023-10-20T09:35:07.045Z,8.30
2023-10-20T09:37:39.088Z,9.20
2023-10-20T09:40:10.442Z,8.70
2023-10-20T09:42:55.521Z,10.50
2023-10-20T09:45:32.903Z,10.90
2023-10-20T09:48:14.322Z,9.70
2023-10-20T09:50:42.680Z,9.90
2023-10-20T09:53:09.916Z,8.00
2023-10-20T09:55:37.577Z,9.10
2023-10-20T09:58:04.826Z,7.90
2023-10-20T10:00:34.587Z,6.70
2023-10-20T10:03:01.837Z,8.60
2023-10-20T10:05:30.724Z,13.70
2023-10-20T10:08:07.555Z,8.20
2023-10-20T10:10:36.582Z,8.90
2023-10-20T10:13:07.795Z,10.20
2023-10-20T10:15:46.005Z,9.30
2023-10-20T10:18:16.496Z,6.00
2023-10-20T10:20:47.287Z,9.00
2023-10-20T10:23:18.040Z,8.20
2023-10-20T10:25:50.472Z,11.90
2023-10-20T10:28:20.393Z,6.20
2023-10-20T10:30:52.922Z,6.60
2023-10-20T10:33:25.693Z,8.10
2023-10-20T10:36:10.756Z,9.70
2023-10-20T10:38:44.037Z,6.80
2023-10-20T10:41:11.593Z,9.20
2023-10-20T10:43:39.226Z,7.60
2023-10-20T10:46:07.412Z,9.30
2023-10-20T10:48:36.029Z,8.30
2023-10-20T10:51:06.102Z,7.60
2023-10-20T10:53:32.988Z,7.80
2023-10-20T10:56:00.200Z,6.50
2023-10-20T10:58:27.323Z,13.40
2023-10-20T11:00:55.494Z,7.60
2023-10-20T11:03:26.086Z,8.40
2023-10-20T11:05:54.864Z,7.70
2023-10-20T11:08:22.033Z,8.80
2023-10-20T11:10:49.852Z,7.60
2023-10-20T11:13:17.764Z,7.60
2023-10-20T11:15:50.302Z,8.30
2023-10-20T11:20:48.444Z,9.70
2023-10-20T11:23:20.165Z,7.30
2023-10-20T11:25:49.461Z,9.40
2023-10-20T11:28:17.520Z,7.60
2023-10-20T11:30:46.007Z,8.20
2023-10-20T11:33:16.446Z,8.30
2023-10-20T11:35:44.933Z,6.30
2023-10-20T11:38:16.915Z,11.50
2023-10-20T11:40:48.316Z,9.00
2023-10-20T11:43:15.464Z,9.10
2023-10-20T11:45:42.304Z,12.90
2023-10-20T11:48:09.859Z,11.40
2023-10-20T11:50:37.491Z,9.20
2023-10-20T11:53:05.014Z,8.90
2023-10-20T11:55:32.954Z,15.60
2023-10-20T11:58:01.439Z,12.00
2023-10-20T12:00:28.898Z,13.00
2023-10-20T12:02:56.342Z,14.60
2023-10-20T12:05:23.358Z,12.00
2023-10-20T12:07:51.472Z,8.50
2023-10-20T12:10:18.672Z,12.20
2023-10-20T12:12:45.565Z,13.80
2023-10-20T12:15:12.515Z,16.30
2023-10-20T12:17:41.799Z,13.70
2023-10-20T12:20:10.446Z,11.90
2023-10-20T12:22:37.354Z,13.90
2023-10-20T12:25:05.904Z,14.60
2023-10-20T12:27:32.770Z,10.10
2023-10-20T12:29:59.779Z,16.50
2023-10-20T12:32:27.957Z,12.20
2023-10-20T12:34:55.668Z,11.20
2023-10-20T12:37:22.599Z,12.90
2023-10-20T12:39:50.056Z,14.50
2023-10-20T12:42:16.898Z,13.70
2023-10-20T12:44:44.069Z,10.50
2023-10-20T12:47:11.875Z,10.40
2023-10-20T12:49:38.624Z,16.30
2023-10-20T12:52:05.598Z,21.20
2023-10-20T12:54:32.692Z,12.10
2023-10-20T12:57:01.500Z,14.50
2023-10-20T12:59:29.324Z,11.30
2023-10-20T13:01:56.374Z,12.30
2023-10-20T13:04:23.797Z,13.30
2023-10-20T13:07:00.077Z,14.50
2023-10-20T13:09:28.926Z,16.40
2023-10-20T13:11:59.670Z,13.10
2023-10-20T13:14:27.607Z,13.20
2023-10-20T13:16:54.618Z,12.60
2023-10-20T13:19:21.538Z,28.60
2023-10-20T13:21:48.326Z,44.60
2023-10-20T13:24:15.191Z,40.00
2023-10-20T13:26:42.188Z,38.10
2023-10-20T13:29:09.837Z,22.80
2023-10-20T13:31:36.789Z,23.70
2023-10-20T13:34:06.072Z,13.70
2023-10-20T13:36:35.491Z,12.60
2023-10-20T13:39:02.856Z,14.80
2023-10-20T13:41:29.900Z,12.60
2023-10-20T13:43:57.141Z,9.80
2023-10-20T13:46:23.926Z,15.10
2023-10-20T13:48:50.923Z,15.40
2023-10-20T13:51:17.965Z,11.40
2023-10-20T13:53:44.827Z,13.30
2023-10-20T13:56:12.161Z,13.30
2023-10-20T13:58:40.039Z,17.40
2023-10-20T14:01:07.079Z,22.70
2023-10-20T14:03:34.161Z,17.70
2023-10-20T14:06:01.542Z,14.70
2023-10-20T14:08:29.444Z,18.50
2023-10-20T14:11:00.700Z,8.50
2023-10-20T14:13:27.755Z,17.90
2023-10-20T14:15:54.673Z,10.90
2023-10-20T14:18:22.622Z,18.10
2023-10-20T14:20:50.100Z,12.20
2023-10-20T14:23:20.347Z,16.90
2023-10-20T14:25:56.571Z,13.70
2023-10-20T14:28:24.679Z,11.30
2023-10-20T14:30:55.105Z,13.70
2023-10-20T14:33:23.460Z,51.40
2023-10-20T14:35:50.775Z,67.10
2023-10-20T14:38:17.880Z,47.50
2023-10-20T14:40:45.742Z,52.30
2023-10-20T14:43:12.687Z,38.40
2023-10-20T14:45:39.528Z,26.10
2023-10-20T14:48:07.050Z,22.60
2023-10-20T14:50:36.525Z,26.70
2023-10-20T14:53:03.801Z,32.10
2023-10-20T14:55:34.990Z,46.80
2023-10-20T14:58:01.840Z,33.10
2023-10-20T15:00:29.494Z,33.20
2023-10-20T15:02:56.475Z,30.00
2023-10-20T15:05:23.753Z,294.90
2023-10-20T15:07:50.573Z,191.50
2023-10-20T15:10:17.890Z,27.50
2023-10-20T15:12:46.553Z,62.90
2023-10-20T15:15:13.453Z,76.90
2023-10-20T15:17:40.539Z,63.10
2023-10-20T15:20:09.364Z,125.00
2023-10-20T15:22:36.192Z,99.10
2023-10-20T15:25:05.191Z,117.70
2023-10-20T15:27:32.337Z,100.40
2023-10-20T15:29:59.279Z,103.00
2023-10-20T15:32:26.418Z,97.90
2023-10-20T15:34:54.613Z,108.90
2023-10-20T15:37:23.247Z,115.50
2023-10-20T15:39:55.333Z,99.60
2023-10-20T15:42:31.019Z,44.40
2023-10-20T15:44:58.195Z,53.20
2023-10-20T15:47:25.125Z,76.40
2023-10-20T15:49:52.563Z,101.40
2023-10-20T15:52:19.406Z,123.70
2023-10-20T15:54:46.456Z,100.90
2023-10-20T15:57:13.511Z,126.20
2023-10-20T15:59:40.634Z,112.00
2023-10-20T16:02:07.694Z,114.70
2023-10-20T16:04:34.590Z,133.90
2023-10-20T16:07:01.599Z,137.00
2023-10-20T16:09:29.143Z,89.60
2023-10-20T16:11:56.003Z,110.70
2023-10-20T16:14:22.933Z,105.60
2023-10-20T16:16:49.974Z,77.00
2023-10-20T16:19:16.929Z,88.60
2023-10-20T16:21:43.867Z,80.80
2023-10-20T16:24:13.992Z,96.20
2023-10-20T16:26:40.892Z,79.60
2023-10-20T16:29:08.081Z,120.10
2023-10-20T16:31:34.955Z,122.20
2023-10-20T16:34:02.073Z,166.70
2023-10-20T16:36:30.143Z,128.10
2023-10-20T16:38:59.893Z,144.20
2023-10-20T16:41:27.028Z,64.40
2023-10-20T16:43:53.851Z,58.40
2023-10-20T16:46:20.572Z,63.30
2023-10-20T16:48:49.299Z,67.50
2023-10-20T16:51:18.872Z,41.10
2023-10-20T16:56:16.716Z,72.60
2023-10-20T16:58:43.794Z,41.70
2023-10-20T17:01:10.905Z,55.20
2023-10-20T17:03:38.305Z,38.50
2023-10-20T17:06:06.345Z,31.60
2023-10-20T17:08:34.063Z,47.60
2023-10-20T17:11:04.994Z,30.50
2023-10-20T17:13:34.992Z,32.90
2023-10-20T17:16:08.694Z,34.20
2023-10-20T17:18:36.166Z,22.70
2023-10-20T17:21:05.353Z,26.10
2023-10-20T17:23:33.414Z,62.00
2023-10-20T17:26:01.908Z,56.90
2023-10-20T17:28:31.240Z,62.30
2023-10-20T17:31:03.206Z,80.00
2023-10-20T17:33:30.704Z,112.20
2023-10-20T17:36:05.908Z,113.40
2023-10-20T17:38:33.711Z,141.30
2023-10-20T17:41:05.080Z,103.70
2023-10-20T17:43:32.915Z,76.30
2023-10-20T17:46:11.223Z,71.50
2023-10-20T17:48:38.484Z,75.30
2023-10-20T17:51:05.595Z,54.50
2023-10-20T17:53:35.214Z,53.30
2023-10-20T17:56:06.410Z,53.20
2023-10-20T17:58:33.917Z,60.90
2023-10-20T18:01:05.002Z,52.70
2023-10-20T18:03:32.779Z,47.00
2023-10-20T18:06:26.880Z,45.70
2023-10-20T18:08:54.259Z,51.70
2023-10-20T18:11:21.731Z,41.90
2023-10-20T18:13:51.522Z,43.70
2023-10-20T18:16:21.665Z,39.60
2023-10-20T18:18:51.122Z,43.00
2023-10-20T18:21:19.994Z,34.00
2023-10-20T18:23:54.354Z,35.30
2023-10-20T18:26:24.542Z,29.20
2023-10-20T18:28:51.265Z,33.50
2023-10-20T18:31:23.264Z,23.20
2023-10-20T18:33:54.365Z,35.50
2023-10-20T18:36:21.221Z,23.60
2023-10-20T18:38:48.508Z,14.50
2023-10-20T18:41:20.382Z,24.90
2023-10-20T18:43:47.787Z,24.80
2023-10-20T18:46:14.967Z,28.10
2023-10-20T18:48:42.324Z,31.40
2023-10-20T18:51:12.009Z,23.90
2023-10-20T18:53:41.540Z,26.50
2023-10-20T18:56:09.405Z,25.90
2023-10-20T18:58:38.811Z,30.30
2023-10-20T19:01:07.815Z,26.00
2023-10-20T19:03:35.255Z,25.80
2023-10-20T19:06:09.024Z,22.10
2023-10-20T19:08:39.331Z,21.50
2023-10-20T19:11:11.016Z,25.00
2023-10-20T19:13:40.668Z,20.60
2023-10-20T19:16:07.587Z,32.00
2023-10-20T19:18:34.885Z,21.20
2023-10-20T19:21:04.836Z,20.50
2023-10-20T19:23:31.979Z,18.20
2023-10-20T19:26:07.177Z,25.10
2023-10-20T19:28:34.682Z,18.70
2023-10-20T19:31:04.038Z,12.80
2023-10-20T19:33:34.705Z,19.00
2023-10-20T19:36:06.817Z,16.50
2023-10-20T19:38:34.365Z,17.50
2023-10-20T19:41:04.473Z,8.10
2023-10-20T19:43:31.416Z,10.90
2023-10-20T19:46:00.907Z,14.10
2023-10-20T19:48:28.233Z,20.00
2023-10-20T19:50:57.801Z,14.70
2023-10-20T19:55:51.865Z,15.40
2023-10-20T19:58:18.847Z,19.20
2023-10-20T20:00:45.670Z,11.10
2023-10-20T20:03:13.373Z,12.90
2023-10-20T20:05:40.482Z,15.50
2023-10-20T20:08:08.194Z,12.80
2023-10-20T20:10:35.179Z,20.30
2023-10-20T20:13:02.320Z,12.80
2023-10-20T20:15:29.268Z,10.70
2023-10-20T20:17:58.013Z,13.30
2023-10-20T20:20:26.138Z,12.70
2023-10-20T20:22:53.013Z,14.80
2023-10-20T20:25:20.013Z,10.90
2023-10-20T20:27:46.859Z,14.20
2023-10-20T20:30:14.479Z,13.30
2023-10-20T20:32:41.445Z,12.20
2023-10-20T20:35:09.582Z,15.10
2023-10-20T20:37:36.583Z,16.00
2023-10-20T20:40:04.490Z,14.00
2023-10-20T20:42:31.801Z,13.10
2023-10-20T20:44:58.855Z,12.20
2023-10-20T20:47:26.242Z,8.60
2023-10-20T20:49:53.355Z,10.80
2023-10-20T20:52:20.301Z,13.50
2023-10-20T20:54:47.241Z,16.80
2023-10-20T20:57:14.218Z,13.00
2023-10-20T20:59:41.088Z,8.50
2023-10-20T21:02:08.081Z,12.40
2023-10-20T21:04:35.004Z,13.30
2023-10-20T21:07:02.078Z,15.40
2023-10-20T21:09:29.121Z,9.00
2023-10-20T21:11:56.017Z,12.40
2023-10-20T21:14:23.003Z,14.30
2023-10-20T21:16:49.874Z,9.90
2023-10-20T21:19:17.926Z,8.40
2023-10-20T21:21:45.263Z,13.60
2023-10-20T21:24:12.265Z,9.00
2023-10-20T21:26:40.596Z,12.50
2023-10-20T21:29:08.243Z,9.00
2023-10-20T21:31:35.386Z,9.10
2023-10-20T21:34:02.335Z,8.10
2023-10-20T21:36:29.373Z,10.50
2023-10-20T21:38:56.474Z,9.20
2023-10-20T21:41:23.778Z,11.30
2023-10-20T21:43:50.548Z,9.70
2023-10-20T21:46:17.480Z,12.90
2023-10-20T21:48:44.633Z,12.60
2023-10-20T21:51:11.715Z,9.40
2023-10-20T21:53:39.949Z,10.60
2023-10-20T21:56:09.550Z,13.30
2023-10-20T22:01:09.374Z,10.50
2023-10-20T22:03:38.616Z,8.30
2023-10-20T22:06:07.568Z,13.80
2023-10-20T22:08:35.038Z,7.30
2023-10-20T22:11:02.188Z,10.30
2023-10-20T22:13:29.006Z,9.40
2023-10-20T22:15:56.363Z,8.80
2023-10-20T22:18:23.560Z,12.90
2023-10-20T22:20:50.844Z,9.00
2023-10-20T22:23:22.935Z,13.50
2023-10-20T22:25:50.290Z,9.50
2023-10-20T22:28:17.262Z,9.50
2023-10-20T22:30:44.252Z,7.20
2023-10-20T22:33:11.091Z,9.20
2023-10-20T22:35:38.212Z,9.20
2023-10-20T22:38:05.838Z,8.50
2023-10-20T22:40:33.700Z,6.40
2023-10-20T22:43:00.920Z,12.00
2023-10-20T22:45:27.789Z,10.70
2023-10-20T22:47:54.503Z,9.20
2023-10-20T22:50:21.631Z,11.30
2023-10-20T22:52:48.750Z,13.90
2023-10-20T22:55:15.990Z,13.30
2023-10-20T22:57:42.932Z,11.20
2023-10-20T23:00:11.192Z,7.80
2023-10-20T23:02:39.228Z,8.60
2023-10-20T23:05:10.347Z,11.50
2023-10-20T23:07:37.492Z,8.60
2023-10-20T23:10:05.306Z,8.00
2023-10-20T23:12:33.489Z,12.80
2023-10-20T23:15:00.587Z,11.30
2023-10-20T23:17:28.077Z,14.00
2023-10-20T23:19:55.384Z,9.90
2023-10-20T23:22:22.222Z,9.20
2023-10-20T23:24:49.177Z,12.30
2023-10-20T23:27:16.255Z,10.50
2023-10-20T23:29:43.306Z,9.40
2023-10-20T23:32:10.533Z,12.30
2023-10-20T23:34:37.559Z,14.80
2023-10-20T23:37:05.333Z,12.70
2023-10-20T23:39:33.622Z,8.50
2023-10-20T23:42:01.193Z,10.00
2023-10-20T23:44:30.262Z,8.60
2023-10-20T23:46:57.925Z,12.20
2023-10-20T23:49:24.993Z,15.20
2023-10-20T23:51:52.438Z,8.00
2023-10-20T23:54:19.433Z,9.70
2023-10-20T23:56:46.472Z,11.90
2023-10-20T23:59:13.577Z,11.20
